createdAt,value
2019-02-15T00:00:00.448Z,3.9
2019-02-15T00:00:08.336Z,3.9
2019-02-15T00:00:16.200Z,3.9
2019-02-15T00:00:24.149Z,3.8
2019-02-15T00:00:32.018Z,4.9
2019-02-15T00:00:39.915Z,4.7
2019-02-15T00:00:47.832Z,4.9
2019-02-15T00:00:55.728Z,4.7
2019-02-15T00:01:03.618Z,3.4
2019-02-15T00:01:11.568Z,3.3
2019-02-15T00:01:20.464Z,3.2
2019-02-15T00:01:28.341Z,3.9
2019-02-15T00:01:36.222Z,4.2
2019-02-15T00:01:45.155Z,4.5
2019-02-15T00:01:53.052Z,5.1
2019-02-15T00:02:01.930Z,4.9
2019-02-15T00:02:09.811Z,5.1
2019-02-15T00:02:17.701Z,4.9
2019-02-15T00:02:25.621Z,4.9
2019-02-15T00:02:33.501Z,5.5
2019-02-15T00:02:41.418Z,5.6
2019-02-15T00:02:49.308Z,5.7
2019-02-15T00:02:57.185Z,5.8
2019-02-15T00:03:05.077Z,4.8
2019-02-15T00:03:12.963Z,5.2
2019-02-15T00:03:20.839Z,5
2019-02-15T00:03:29.732Z,5
2019-02-15T00:03:37.590Z,4.9
2019-02-15T00:03:45.466Z,4.6
2019-02-15T00:03:53.373Z,4.2
2019-02-15T00:04:01.239Z,4.4
2019-02-15T00:04:09.115Z,4
2019-02-15T00:04:17.065Z,4.5
2019-02-15T00:04:25.958Z,4.7
2019-02-15T00:04:33.830Z,4.2
2019-02-15T00:04:41.745Z,4.2
2019-02-15T00:04:49.607Z,3.9
2019-02-15T00:04:57.512Z,3.9
2019-02-15T00:05:05.437Z,4.2
2019-02-15T00:05:13.321Z,4.3
2019-02-15T00:05:21.223Z,4.3
2019-02-15T00:05:29.115Z,4.1
2019-02-15T00:05:36.991Z,4.2
2019-02-15T00:05:44.860Z,3.8
2019-02-15T00:05:52.746Z,4
2019-02-15T00:06:00.650Z,4.4
2019-02-15T00:06:08.543Z,4.2
2019-02-15T00:06:16.437Z,4.1
2019-02-15T00:06:24.319Z,3.7
2019-02-15T00:06:32.203Z,4.2
2019-02-15T00:06:40.075Z,4.8
2019-02-15T00:06:47.974Z,5.3
2019-02-15T00:06:56.847Z,5.5
2019-02-15T00:07:05.729Z,4.7
2019-02-15T00:07:13.602Z,3.9
2019-02-15T00:07:21.475Z,4.2
2019-02-15T00:07:29.342Z,4.4
2019-02-15T00:07:37.227Z,4.5
2019-02-15T00:07:45.131Z,3.9
2019-02-15T00:07:53.021Z,4.3
2019-02-15T00:08:00.934Z,4.2
2019-02-15T00:08:08.840Z,4.6
2019-02-15T00:08:16.757Z,5.6
2019-02-15T00:08:24.651Z,5.1
2019-02-15T00:08:33.519Z,4.9
2019-02-15T00:08:41.415Z,4.3
2019-02-15T00:08:49.280Z,4.4
2019-02-15T00:08:57.189Z,4.6
2019-02-15T00:09:05.059Z,4.6
2019-02-15T00:09:12.945Z,4.6
2019-02-15T00:09:21.818Z,4.6
2019-02-15T00:09:29.714Z,4.2
2019-02-15T00:09:37.603Z,4.3
2019-02-15T00:09:45.465Z,4.3
2019-02-15T00:09:53.345Z,4.6
2019-02-15T00:10:01.271Z,4.5
2019-02-15T00:10:09.146Z,4.8
2019-02-15T00:10:17.049Z,4.7
2019-02-15T00:10:24.917Z,4.1
2019-02-15T00:10:32.823Z,4
2019-02-15T00:10:40.690Z,4.3
2019-02-15T00:10:48.572Z,4.3
2019-02-15T00:10:57.450Z,4.3
2019-02-15T00:11:05.371Z,3.9
2019-02-15T00:11:13.297Z,3.6
2019-02-15T00:11:21.196Z,3.7
2019-02-15T00:11:29.101Z,3.4
2019-02-15T00:11:36.957Z,3.5
2019-02-15T00:11:44.831Z,3.5
2019-02-15T00:11:52.719Z,3.4
2019-02-15T00:12:00.607Z,3.8
2019-02-15T00:12:08.490Z,4
2019-02-15T00:12:16.369Z,4
2019-02-15T00:12:24.259Z,3.5
2019-02-15T00:12:33.121Z,3.6
2019-02-15T00:12:40.999Z,3.7
2019-02-15T00:12:48.893Z,4.4
2019-02-15T00:12:56.747Z,4.6
2019-02-15T00:13:13.013Z,4.6
2019-02-15T00:13:16.490Z,4.5
2019-02-15T00:13:24.416Z,4.6
2019-02-15T00:13:32.351Z,5.5
2019-02-15T00:13:40.219Z,5
2019-02-15T00:13:48.091Z,5.1
2019-02-15T00:13:55.961Z,5.2
2019-02-15T00:14:03.865Z,4.2
2019-02-15T00:14:11.758Z,4.1
2019-02-15T00:14:19.657Z,4.3
2019-02-15T00:14:27.516Z,4.3
2019-02-15T00:14:35.415Z,4.7
2019-02-15T00:14:43.307Z,4.7
2019-02-15T00:14:51.205Z,5.1
2019-02-15T00:14:59.083Z,4.4
2019-02-15T00:15:06.963Z,4.4
2019-02-15T00:15:14.859Z,4.3
2019-02-15T00:15:22.721Z,5.1
2019-02-15T00:15:30.615Z,5.2
2019-02-15T00:15:38.512Z,5.1
2019-02-15T00:15:46.447Z,5.3
2019-02-15T00:15:54.368Z,4.2
2019-02-15T00:16:02.241Z,4.7
2019-02-15T00:16:11.105Z,4.8
2019-02-15T00:16:19.004Z,4.7
2019-02-15T00:16:26.918Z,4.6
2019-02-15T00:16:34.801Z,4.3
2019-02-15T00:16:42.658Z,4.2
2019-02-15T00:16:50.634Z,4.5
2019-02-15T00:16:58.515Z,4.7
2019-02-15T00:17:07.201Z,4.3
2019-02-15T00:17:15.089Z,5.4
2019-02-15T00:17:22.978Z,4.6
2019-02-15T00:17:30.863Z,5.1
2019-02-15T00:17:38.719Z,5.7
2019-02-15T00:17:46.599Z,4.4
2019-02-15T00:17:54.516Z,4
2019-02-15T00:18:02.409Z,3.7
2019-02-15T00:18:10.333Z,3.7
2019-02-15T00:18:18.192Z,3.8
2019-02-15T00:18:26.064Z,3.9
2019-02-15T00:18:34.943Z,4
2019-02-15T00:18:43.839Z,4.5
2019-02-15T00:18:51.733Z,5.4
2019-02-15T00:19:00.650Z,6.1
2019-02-15T00:19:08.573Z,6.7
2019-02-15T00:19:16.501Z,6.3
2019-02-15T00:19:24.397Z,5
2019-02-15T00:19:32.298Z,5
2019-02-15T00:19:40.173Z,4.9
2019-02-15T00:19:49.028Z,5.1
2019-02-15T00:19:56.927Z,5.4
2019-02-15T00:20:04.843Z,5.1
2019-02-15T00:20:12.705Z,4.6
2019-02-15T00:20:20.593Z,4.5
2019-02-15T00:20:28.461Z,4.7
2019-02-15T00:20:36.379Z,4.3
2019-02-15T00:20:44.252Z,4.8
2019-02-15T00:20:52.137Z,5
2019-02-15T00:21:01.042Z,5.2
2019-02-15T00:21:08.907Z,4.9
2019-02-15T00:21:16.803Z,4.3
2019-02-15T00:21:24.681Z,4.5
2019-02-15T00:21:32.559Z,4.3
2019-02-15T00:21:40.438Z,4.3
2019-02-15T00:21:48.299Z,4.9
2019-02-15T00:21:56.197Z,4.6
2019-02-15T00:22:04.089Z,4.6
2019-02-15T00:22:12.015Z,4.8
2019-02-15T00:22:19.889Z,4.9
2019-02-15T00:22:27.779Z,5.2
2019-02-15T00:22:35.688Z,4.8
2019-02-15T00:22:43.599Z,4.4
2019-02-15T00:22:51.477Z,3.6
2019-02-15T00:22:59.366Z,4.1
2019-02-15T00:23:07.253Z,3.8
2019-02-15T00:23:15.178Z,4.2
2019-02-15T00:23:23.065Z,5.3
2019-02-15T00:23:30.971Z,4.6
2019-02-15T00:23:38.845Z,4.9
2019-02-15T00:23:46.738Z,4.5
2019-02-15T00:23:54.611Z,3.6
2019-02-15T00:24:02.618Z,3.8
2019-02-15T00:24:10.496Z,4.1
2019-02-15T00:24:19.373Z,4.6
2019-02-15T00:24:27.249Z,5.1
2019-02-15T00:24:35.149Z,5.6
2019-02-15T00:24:43.035Z,5.1
2019-02-15T00:24:50.921Z,5.5
2019-02-15T00:24:58.797Z,5.6
2019-02-15T00:25:06.683Z,5.1
2019-02-15T00:25:14.559Z,5.6
2019-02-15T00:25:22.495Z,4.7
2019-02-15T00:25:30.385Z,5.3
2019-02-15T00:25:38.319Z,4.6
2019-02-15T00:25:47.187Z,4.4
2019-02-15T00:25:55.088Z,4
2019-02-15T00:26:03.005Z,3.8
2019-02-15T00:26:10.887Z,4.3
2019-02-15T00:26:19.794Z,3.8
2019-02-15T00:26:28.307Z,4.2
2019-02-15T00:26:35.579Z,4.4
2019-02-15T00:26:43.471Z,4.4
2019-02-15T00:26:51.330Z,4.3
2019-02-15T00:26:59.209Z,4.5
2019-02-15T00:27:07.169Z,4.2
2019-02-15T00:27:15.023Z,4.1
2019-02-15T00:27:22.893Z,4
2019-02-15T00:27:30.758Z,3.6
2019-02-15T00:27:38.650Z,3.7
2019-02-15T00:27:46.523Z,3.8
2019-02-15T00:27:54.396Z,4
2019-02-15T00:28:02.278Z,3.9
2019-02-15T00:28:10.189Z,3.9
2019-02-15T00:28:18.063Z,3.9
2019-02-15T00:28:25.947Z,4.4
2019-02-15T00:28:33.849Z,4.4
2019-02-15T00:28:42.719Z,4.7
2019-02-15T00:28:50.623Z,5.1
2019-02-15T00:28:58.495Z,5.1
2019-02-15T00:29:06.397Z,5
2019-02-15T00:29:14.277Z,4.4
2019-02-15T00:29:23.143Z,3.6
2019-02-15T00:29:31.029Z,3.4
2019-02-15T00:29:38.907Z,3.9
2019-02-15T00:29:46.859Z,4.4
2019-02-15T00:29:55.706Z,4.2
2019-02-15T00:30:04.613Z,4.6
2019-02-15T00:30:12.485Z,4.1
2019-02-15T00:30:21.367Z,3.7
2019-02-15T00:30:29.247Z,4.6
2019-02-15T00:30:37.106Z,4.8
2019-02-15T00:30:45.011Z,4.7
2019-02-15T00:30:52.885Z,4.2
2019-02-15T00:31:00.783Z,3.5
2019-02-15T00:31:08.689Z,3.6
2019-02-15T00:31:16.602Z,3.5
2019-02-15T00:31:24.468Z,3.5
2019-02-15T00:31:33.365Z,4.6
2019-02-15T00:31:41.267Z,4.9
2019-02-15T00:31:49.129Z,5
2019-02-15T00:31:57.017Z,4.1
2019-02-15T00:32:04.918Z,3.5
2019-02-15T00:32:13.764Z,3.8
2019-02-15T00:32:21.628Z,4
2019-02-15T00:32:29.519Z,4
2019-02-15T00:32:37.383Z,4.3
2019-02-15T00:32:45.261Z,3.8
2019-02-15T00:32:53.160Z,4.2
2019-02-15T00:33:01.070Z,4.4
2019-02-15T00:33:08.973Z,4.3
2019-02-15T00:33:16.965Z,4.7
2019-02-15T00:33:24.858Z,4.3
2019-02-15T00:33:32.735Z,4.4
2019-02-15T00:33:40.605Z,4.2
2019-02-15T00:33:48.491Z,4.4
2019-02-15T00:33:56.378Z,4.6
2019-02-15T00:34:05.284Z,5.2
2019-02-15T00:34:13.169Z,5.3
2019-02-15T00:34:21.047Z,5.6
2019-02-15T00:34:29.939Z,5.5
2019-02-15T00:34:37.825Z,4.7
2019-02-15T00:34:45.692Z,4.1
2019-02-15T00:34:53.555Z,4.5
2019-02-15T00:35:01.475Z,4.2
2019-02-15T00:35:09.351Z,4.4
2019-02-15T00:35:17.283Z,5.4
2019-02-15T00:35:26.165Z,4.8
2019-02-15T00:35:34.048Z,4.2
2019-02-15T00:35:41.931Z,3.9
2019-02-15T00:35:50.817Z,3.4
2019-02-15T00:35:58.701Z,3.4
2019-02-15T00:36:06.582Z,3.5
2019-02-15T00:36:14.465Z,3.5
2019-02-15T00:36:22.331Z,3.5
2019-02-15T00:36:30.229Z,3.5
2019-02-15T00:36:38.123Z,3.7
2019-02-15T00:36:46.986Z,4
2019-02-15T00:36:54.862Z,4.4
2019-02-15T00:37:03.737Z,4
2019-02-15T00:37:11.624Z,4.7
2019-02-15T00:37:19.519Z,4.8
2019-02-15T00:37:27.398Z,4.5
2019-02-15T00:37:35.263Z,4.7
2019-02-15T00:37:43.164Z,3.9
2019-02-15T00:37:51.077Z,4.1
2019-02-15T00:37:58.948Z,4.9
2019-02-15T00:38:06.835Z,4.6
2019-02-15T00:38:14.730Z,4.7
2019-02-15T00:38:22.613Z,4.7
2019-02-15T00:38:30.503Z,4.1
2019-02-15T00:38:38.370Z,4.6
2019-02-15T00:38:46.256Z,4.4
2019-02-15T00:38:54.148Z,4.5
2019-02-15T00:39:02.033Z,4.5
2019-02-15T00:39:09.917Z,4
2019-02-15T00:39:17.797Z,4.4
2019-02-15T00:39:25.700Z,4.1
2019-02-15T00:39:33.659Z,4
2019-02-15T00:39:43.059Z,3.8
2019-02-15T00:39:50.955Z,3.6
2019-02-15T00:39:58.849Z,3.8
2019-02-15T00:40:07.805Z,4.2
2019-02-15T00:40:15.628Z,4.4
2019-02-15T00:40:23.523Z,4.7
2019-02-15T00:40:31.391Z,4.4
2019-02-15T00:40:39.260Z,4.3
2019-02-15T00:40:47.131Z,4.1
2019-02-15T00:40:55.033Z,3.7
2019-02-15T00:41:02.927Z,4.1
2019-02-15T00:41:10.815Z,4.3
2019-02-15T00:41:18.719Z,4.3
2019-02-15T00:41:26.594Z,3.8
2019-02-15T00:41:34.483Z,4.1
2019-02-15T00:41:42.346Z,4.6
2019-02-15T00:41:50.255Z,5
2019-02-15T00:41:58.174Z,5.6
2019-02-15T00:42:06.086Z,4.7
2019-02-15T00:42:13.955Z,4.3
2019-02-15T00:42:21.852Z,4.2
2019-02-15T00:42:29.741Z,4.5
2019-02-15T00:42:37.618Z,4.7
2019-02-15T00:42:45.479Z,4.7
2019-02-15T00:42:53.370Z,4.1
2019-02-15T00:43:01.243Z,3.6
2019-02-15T00:43:09.121Z,3.6
2019-02-15T00:43:22.220Z,3.8
2019-02-15T00:43:28.838Z,4.2
2019-02-15T00:43:36.724Z,4.5
2019-02-15T00:43:44.616Z,4.2
2019-02-15T00:43:52.502Z,4.5
2019-02-15T00:44:00.372Z,4
2019-02-15T00:44:08.276Z,3.9
2019-02-15T00:44:16.153Z,4.4
2019-02-15T00:44:24.070Z,3.9
2019-02-15T00:44:32.922Z,3.9
2019-02-15T00:44:40.803Z,4.3
2019-02-15T00:44:48.686Z,4.4
2019-02-15T00:44:56.572Z,4.2
2019-02-15T00:45:04.461Z,4.7
2019-02-15T00:45:12.351Z,4.5
2019-02-15T00:45:20.267Z,4.2
2019-02-15T00:45:28.121Z,4.1
2019-02-15T00:45:35.989Z,3.4
2019-02-15T00:45:43.875Z,4
2019-02-15T00:45:51.755Z,4.4
2019-02-15T00:45:59.637Z,4.7
2019-02-15T00:46:08.522Z,5.3
2019-02-15T00:46:16.389Z,4.1
2019-02-15T00:46:25.296Z,4.4
2019-02-15T00:46:33.200Z,4.4
2019-02-15T00:46:41.055Z,4.8
2019-02-15T00:46:48.976Z,5.3
2019-02-15T00:46:56.850Z,4.9
2019-02-15T00:47:04.729Z,4.9
2019-02-15T00:47:13.588Z,5
2019-02-15T00:47:21.455Z,4.7
2019-02-15T00:47:29.366Z,4.8
2019-02-15T00:47:37.243Z,6.1
2019-02-15T00:47:45.198Z,5.7
2019-02-15T00:47:53.094Z,7
2019-02-15T00:48:00.985Z,6.4
2019-02-15T00:48:08.871Z,5.4
2019-02-15T00:48:16.759Z,5.1
2019-02-15T00:48:24.657Z,4
2019-02-15T00:48:32.532Z,3.7
2019-02-15T00:48:40.395Z,3.9
2019-02-15T00:48:48.284Z,3.9
2019-02-15T00:48:56.159Z,4.4
2019-02-15T00:49:05.033Z,4.3
2019-02-15T00:49:12.927Z,4.6
2019-02-15T00:49:20.804Z,4.9
2019-02-15T00:49:28.679Z,4.7
2019-02-15T00:49:37.550Z,4.7
2019-02-15T00:49:45.436Z,4.5
2019-02-15T00:49:53.324Z,4.4
2019-02-15T00:50:03.270Z,3.9
2019-02-15T00:50:11.169Z,3.9
2019-02-15T00:50:19.051Z,3.9
2019-02-15T00:50:26.935Z,4
2019-02-15T00:50:34.815Z,4.8
2019-02-15T00:50:42.688Z,3.9
2019-02-15T00:50:50.563Z,4.2
2019-02-15T00:50:58.459Z,3.9
2019-02-15T00:51:07.337Z,3.4
2019-02-15T00:51:16.210Z,3.9
2019-02-15T00:51:24.116Z,3.8
2019-02-15T00:51:32.000Z,3.9
2019-02-15T00:51:39.891Z,3.5
2019-02-15T00:51:47.773Z,4
2019-02-15T00:51:55.624Z,4.2
2019-02-15T00:52:03.534Z,4.1
2019-02-15T00:52:11.404Z,4.1
2019-02-15T00:52:19.275Z,3.4
2019-02-15T00:52:27.166Z,3.6
2019-02-15T00:52:35.051Z,3.5
2019-02-15T00:52:42.968Z,3.5
2019-02-15T00:52:50.854Z,3.7
2019-02-15T00:52:59.746Z,4.4
2019-02-15T00:53:07.609Z,5.8
2019-02-15T00:53:16.486Z,5.7
2019-02-15T00:53:24.358Z,5.8
2019-02-15T00:53:32.301Z,5.5
2019-02-15T00:53:41.162Z,4
2019-02-15T00:53:49.088Z,3.5
2019-02-15T00:53:58.011Z,3.4
2019-02-15T00:54:05.897Z,3.5
2019-02-15T00:54:13.794Z,4
2019-02-15T00:54:22.704Z,4
2019-02-15T00:54:30.601Z,4.1
2019-02-15T00:54:38.469Z,3.6
2019-02-15T00:54:46.368Z,3.7
2019-02-15T00:54:54.300Z,4.2
2019-02-15T00:55:02.236Z,4.1
2019-02-15T00:55:10.086Z,4.3
2019-02-15T00:55:17.971Z,4.3
2019-02-15T00:55:26.844Z,4.3
2019-02-15T00:55:34.740Z,4.3
2019-02-15T00:55:42.622Z,4.1
2019-02-15T00:55:50.499Z,4.6
2019-02-15T00:55:58.371Z,4.5
2019-02-15T00:56:06.244Z,5
2019-02-15T00:56:14.129Z,3.9
2019-02-15T00:56:22.032Z,4.1
2019-02-15T00:56:29.898Z,3.9
2019-02-15T00:56:37.745Z,4.1
2019-02-15T00:56:45.620Z,4
2019-02-15T00:56:54.500Z,3.8
2019-02-15T00:57:02.393Z,3.8
2019-02-15T00:57:10.266Z,3.6
2019-02-15T00:57:18.164Z,3.7
2019-02-15T00:57:26.041Z,4.5
2019-02-15T00:57:34.953Z,4.6
2019-02-15T00:57:42.849Z,5.6
2019-02-15T00:57:50.719Z,5.7
2019-02-15T00:57:58.596Z,4.9
2019-02-15T00:58:06.479Z,4.9
2019-02-15T00:58:14.396Z,4.1
2019-02-15T00:58:22.284Z,3.9
2019-02-15T00:58:30.200Z,4
2019-02-15T00:58:38.058Z,4
2019-02-15T00:58:45.935Z,3.8
2019-02-15T00:58:53.820Z,3.6
2019-02-15T00:59:01.783Z,3.5
2019-02-15T00:59:09.622Z,3.6
2019-02-15T00:59:17.506Z,4.5
2019-02-15T00:59:25.386Z,4.4
2019-02-15T00:59:33.262Z,4.2
2019-02-15T00:59:41.114Z,4.4
2019-02-15T00:59:48.990Z,3.7
2019-02-15T00:59:56.853Z,3.8
2019-02-15T01:00:05.722Z,3.6
2019-02-15T01:00:13.598Z,3.9
2019-02-15T01:00:21.487Z,4.3
2019-02-15T01:00:29.378Z,4.8
2019-02-15T01:00:37.243Z,4.2
2019-02-15T01:00:45.127Z,3.8
2019-02-15T01:00:54.016Z,4.5
2019-02-15T01:01:01.902Z,4.3
2019-02-15T01:01:09.780Z,4.9
2019-02-15T01:01:18.676Z,5
2019-02-15T01:01:26.598Z,5
2019-02-15T01:01:34.486Z,4.7
2019-02-15T01:01:42.372Z,4.4
2019-02-15T01:01:51.241Z,4.8
2019-02-15T01:01:59.140Z,4.9
2019-02-15T01:02:07.038Z,4.6
2019-02-15T01:02:14.924Z,4.2
2019-02-15T01:02:22.804Z,4.3
2019-02-15T01:02:30.688Z,4.2
2019-02-15T01:02:38.573Z,3.9
2019-02-15T01:02:46.446Z,4.4
2019-02-15T01:02:54.348Z,4.6
2019-02-15T01:03:02.247Z,4.7
2019-02-15T01:03:10.129Z,4.5
2019-02-15T01:03:17.995Z,4.3
2019-02-15T01:03:25.908Z,4.1
2019-02-15T01:03:33.790Z,4.1
2019-02-15T01:03:41.673Z,4.3
2019-02-15T01:03:49.559Z,4.6
2019-02-15T01:03:57.443Z,4.4
2019-02-15T01:04:05.323Z,4.7
2019-02-15T01:04:13.220Z,4.4
2019-02-15T01:04:21.092Z,3.9
2019-02-15T01:04:28.966Z,4.1
2019-02-15T01:04:36.862Z,4.5
2019-02-15T01:04:44.734Z,4.3
2019-02-15T01:04:52.622Z,4.6
2019-02-15T01:05:01.491Z,4.2
2019-02-15T01:05:09.368Z,4.1
2019-02-15T01:05:17.286Z,4
2019-02-15T01:05:25.157Z,3.7
2019-02-15T01:05:33.044Z,3.9
2019-02-15T01:05:40.953Z,4.3
2019-02-15T01:05:48.860Z,4.5
2019-02-15T01:05:56.748Z,4.7
2019-02-15T01:06:04.626Z,4.4
2019-02-15T01:06:12.509Z,4.1
2019-02-15T01:06:20.430Z,4.2
2019-02-15T01:06:28.382Z,3.5
2019-02-15T01:06:36.256Z,5
2019-02-15T01:06:45.124Z,5.6
2019-02-15T01:06:53.990Z,5.8
2019-02-15T01:07:01.870Z,5.5
2019-02-15T01:07:09.755Z,5.2
2019-02-15T01:07:18.616Z,5.2
2019-02-15T01:07:26.482Z,5.9
2019-02-15T01:07:34.356Z,5.7
2019-02-15T01:07:42.250Z,4.3
2019-02-15T01:07:50.124Z,4.8
2019-02-15T01:07:58.030Z,4
2019-02-15T01:08:05.884Z,4.4
2019-02-15T01:08:13.753Z,4.2
2019-02-15T01:08:21.644Z,3.9
2019-02-15T01:08:29.562Z,3.8
2019-02-15T01:08:37.431Z,3.6
2019-02-15T01:08:45.304Z,3.8
2019-02-15T01:08:53.178Z,4.9
2019-02-15T01:09:01.087Z,4.7
2019-02-15T01:09:08.985Z,4.6
2019-02-15T01:09:16.878Z,4.6
2019-02-15T01:09:24.780Z,4.1
2019-02-15T01:09:32.688Z,4
2019-02-15T01:09:40.605Z,4.7
2019-02-15T01:09:48.464Z,4.7
2019-02-15T01:09:57.337Z,4.1
2019-02-15T01:10:05.243Z,3.8
2019-02-15T01:10:14.134Z,3.6
2019-02-15T01:10:22.002Z,3.7
2019-02-15T01:10:29.918Z,3.9
2019-02-15T01:10:38.844Z,3.9
2019-02-15T01:10:46.733Z,3.6
2019-02-15T01:10:54.619Z,3.7
2019-02-15T01:11:02.546Z,4
2019-02-15T01:11:10.450Z,4.4
2019-02-15T01:11:19.300Z,4.9
2019-02-15T01:11:27.230Z,6.1
2019-02-15T01:11:35.114Z,6.5
2019-02-15T01:11:43.008Z,6.1
2019-02-15T01:11:50.899Z,5.3
2019-02-15T01:11:58.784Z,4.7
2019-02-15T01:12:06.650Z,4
2019-02-15T01:12:14.520Z,4.2
2019-02-15T01:12:22.400Z,4.1
2019-02-15T01:12:30.268Z,4
2019-02-15T01:12:39.139Z,4.2
2019-02-15T01:12:47.000Z,4
2019-02-15T01:12:54.872Z,4
2019-02-15T01:13:02.749Z,3.8
2019-02-15T01:13:10.635Z,3.9
2019-02-15T01:13:19.526Z,3.6
2019-02-15T01:13:31.428Z,3.7
2019-02-15T01:13:40.258Z,3.4
2019-02-15T01:13:49.131Z,3.6
2019-02-15T01:13:56.990Z,3.8
2019-02-15T01:14:04.895Z,4.5
2019-02-15T01:14:12.772Z,5.1
2019-02-15T01:14:20.652Z,5.2
2019-02-15T01:14:28.534Z,5.8
2019-02-15T01:14:36.457Z,5.6
2019-02-15T01:14:44.294Z,4.8
2019-02-15T01:14:52.220Z,4.3
2019-02-15T01:15:00.119Z,3.8
2019-02-15T01:15:07.961Z,3.5
2019-02-15T01:15:16.808Z,4.1
2019-02-15T01:15:24.710Z,3.9
2019-02-15T01:15:32.572Z,4.5
2019-02-15T01:15:40.470Z,4.4
2019-02-15T01:15:48.339Z,4.1
2019-02-15T01:15:56.221Z,4.4
2019-02-15T01:16:04.110Z,4.2
2019-02-15T01:16:11.989Z,4.4
2019-02-15T01:16:19.876Z,4.7
2019-02-15T01:16:27.789Z,5
2019-02-15T01:16:35.656Z,4.5
2019-02-15T01:16:43.570Z,4.9
2019-02-15T01:16:52.456Z,4.7
2019-02-15T01:17:00.320Z,4.1
2019-02-15T01:17:08.194Z,4.1
2019-02-15T01:17:16.064Z,3.6
2019-02-15T01:17:23.921Z,3.8
2019-02-15T01:17:32.817Z,4.8
2019-02-15T01:17:40.703Z,5.2
2019-02-15T01:17:48.594Z,5.5
2019-02-15T01:17:56.516Z,5.5
2019-02-15T01:18:05.378Z,4.3
2019-02-15T01:18:13.238Z,4.1
2019-02-15T01:18:21.102Z,3.7
2019-02-15T01:18:28.978Z,3.5
2019-02-15T01:18:36.836Z,3.6
2019-02-15T01:18:44.724Z,4
2019-02-15T01:18:52.622Z,4.1
2019-02-15T01:19:00.520Z,4.4
2019-02-15T01:19:09.382Z,4.7
2019-02-15T01:19:17.263Z,5
2019-02-15T01:19:25.124Z,5
2019-02-15T01:19:33.000Z,5.1
2019-02-15T01:19:40.895Z,4.7
2019-02-15T01:19:48.776Z,4.5
2019-02-15T01:19:56.690Z,4.1
2019-02-15T01:20:04.547Z,3.9
2019-02-15T01:20:12.432Z,4
2019-02-15T01:20:20.328Z,4.1
2019-02-15T01:20:28.227Z,3.9
2019-02-15T01:20:36.128Z,4.1
2019-02-15T01:20:44.009Z,4.1
2019-02-15T01:20:51.924Z,3.9
2019-02-15T01:21:00.801Z,3.7
2019-02-15T01:21:08.678Z,4.5
2019-02-15T01:21:16.719Z,4.2
2019-02-15T01:21:24.608Z,4.2
2019-02-15T01:21:32.502Z,4.4
2019-02-15T01:21:40.423Z,3.8
2019-02-15T01:21:48.280Z,4
2019-02-15T01:21:56.158Z,4.3
2019-02-15T01:22:04.068Z,4.2
2019-02-15T01:22:12.973Z,4.8
2019-02-15T01:22:20.872Z,4.6
2019-02-15T01:22:28.751Z,4.3
2019-02-15T01:22:36.622Z,4.1
2019-02-15T01:22:44.493Z,3.9
2019-02-15T01:22:52.371Z,3.9
2019-02-15T01:23:00.246Z,4.1
2019-02-15T01:23:08.161Z,4.6
2019-02-15T01:23:16.068Z,5.2
2019-02-15T01:23:23.928Z,5
2019-02-15T01:23:31.842Z,4.6
2019-02-15T01:23:39.704Z,4.2
2019-02-15T01:23:47.606Z,4.5
2019-02-15T01:23:55.494Z,4.2
2019-02-15T01:24:04.379Z,4.1
2019-02-15T01:24:12.254Z,4
2019-02-15T01:24:20.158Z,3.5
2019-02-15T01:24:28.035Z,3.7
2019-02-15T01:24:35.894Z,3.9
2019-02-15T01:24:43.792Z,4
2019-02-15T01:24:51.683Z,3.9
2019-02-15T01:24:59.554Z,4
2019-02-15T01:25:07.434Z,3.9
2019-02-15T01:25:15.324Z,4.2
2019-02-15T01:25:23.190Z,4.3
2019-02-15T01:25:31.088Z,5
2019-02-15T01:25:38.972Z,5.1
2019-02-15T01:25:46.868Z,4.9
2019-02-15T01:25:54.746Z,4.7
2019-02-15T01:26:02.627Z,4
2019-02-15T01:26:10.494Z,4.3
2019-02-15T01:26:18.362Z,3.7
2019-02-15T01:26:26.302Z,4
2019-02-15T01:26:34.182Z,4.3
2019-02-15T01:26:42.067Z,4.2
2019-02-15T01:26:49.980Z,4.8
2019-02-15T01:26:57.858Z,4.9
2019-02-15T01:27:05.784Z,4.8
2019-02-15T01:27:14.653Z,4.8
2019-02-15T01:27:22.550Z,4.4
2019-02-15T01:27:30.426Z,4.1
2019-02-15T01:27:38.299Z,4.2
2019-02-15T01:27:46.222Z,4.7
2019-02-15T01:27:54.098Z,4.9
2019-02-15T01:28:01.986Z,4.7
2019-02-15T01:28:09.863Z,4.1
2019-02-15T01:28:17.781Z,4.1
2019-02-15T01:28:25.666Z,4.1
2019-02-15T01:28:33.576Z,4.1
2019-02-15T01:28:41.459Z,4.1
2019-02-15T01:28:50.352Z,4.1
2019-02-15T01:28:58.235Z,3.9
2019-02-15T01:29:07.093Z,3.6
2019-02-15T01:29:14.971Z,3.8
2019-02-15T01:29:22.860Z,4.3
2019-02-15T01:29:30.718Z,4.3
2019-02-15T01:29:38.646Z,4.5
2019-02-15T01:29:46.525Z,4.1
2019-02-15T01:29:56.400Z,4.3
2019-02-15T01:30:04.280Z,4.4
2019-02-15T01:30:12.194Z,4.3
2019-02-15T01:30:20.094Z,3.9
2019-02-15T01:30:28.052Z,4.3
2019-02-15T01:30:35.920Z,4.2
2019-02-15T01:30:43.811Z,4.3
2019-02-15T01:30:51.697Z,4.4
2019-02-15T01:30:59.570Z,4.1
2019-02-15T01:31:07.443Z,3.8
2019-02-15T01:31:15.316Z,4.2
2019-02-15T01:31:23.181Z,4.6
2019-02-15T01:31:31.062Z,4.2
2019-02-15T01:31:38.954Z,6.7
2019-02-15T01:31:46.849Z,6.6
2019-02-15T01:31:54.727Z,6.4
2019-02-15T01:32:02.618Z,6.8
2019-02-15T01:32:10.495Z,4
2019-02-15T01:32:18.382Z,4.1
2019-02-15T01:32:26.254Z,3.9
2019-02-15T01:32:34.131Z,3.9
2019-02-15T01:32:41.996Z,3.9
2019-02-15T01:32:50.895Z,3.8
2019-02-15T01:32:58.790Z,4
2019-02-15T01:33:06.671Z,4.2
2019-02-15T01:33:14.565Z,4.5
2019-02-15T01:33:22.434Z,4.7
2019-02-15T01:33:30.303Z,4.6
2019-02-15T01:33:38.192Z,4.5
2019-02-15T01:33:46.071Z,4.2
2019-02-15T01:33:53.939Z,4.2
2019-02-15T01:34:01.843Z,4.5
2019-02-15T01:34:09.744Z,4.1
2019-02-15T01:34:17.613Z,5.4
2019-02-15T01:34:25.529Z,5.5
2019-02-15T01:34:33.414Z,5.2
2019-02-15T01:34:41.286Z,5.2
2019-02-15T01:34:49.177Z,4
2019-02-15T01:34:57.058Z,4.1
2019-02-15T01:35:04.937Z,4.3
2019-02-15T01:35:12.792Z,4.2
2019-02-15T01:35:20.698Z,4.2
2019-02-15T01:35:28.595Z,4.1
2019-02-15T01:35:36.467Z,3.9
2019-02-15T01:35:45.318Z,4
2019-02-15T01:35:53.193Z,3.7
2019-02-15T01:36:02.069Z,3.6
2019-02-15T01:36:09.940Z,4.1
2019-02-15T01:36:18.816Z,4.2
2019-02-15T01:36:26.724Z,4.2
2019-02-15T01:36:34.601Z,4
2019-02-15T01:36:42.482Z,4.1
2019-02-15T01:36:50.342Z,3.8
2019-02-15T01:36:58.206Z,4.2
2019-02-15T01:37:06.077Z,4.2
2019-02-15T01:37:13.961Z,4.3
2019-02-15T01:37:21.846Z,4.3
2019-02-15T01:37:30.704Z,4.1
2019-02-15T01:37:38.574Z,4.2
2019-02-15T01:37:46.511Z,3.8
2019-02-15T01:37:54.419Z,3.9
2019-02-15T01:38:02.323Z,3.8
2019-02-15T01:38:10.192Z,4.2
2019-02-15T01:38:18.081Z,4.5
2019-02-15T01:38:25.963Z,4.9
2019-02-15T01:38:33.854Z,5.3
2019-02-15T01:38:42.713Z,4.6
2019-02-15T01:38:50.631Z,4
2019-02-15T01:38:58.515Z,4.2
2019-02-15T01:39:06.386Z,3.7
2019-02-15T01:39:14.251Z,3.4
2019-02-15T01:39:22.115Z,3.6
2019-02-15T01:39:30.974Z,3.7
2019-02-15T01:39:39.854Z,4
2019-02-15T01:39:47.746Z,4
2019-02-15T01:39:55.606Z,4.2
2019-02-15T01:40:03.480Z,3.9
2019-02-15T01:40:11.366Z,4
2019-02-15T01:40:19.237Z,4.1
2019-02-15T01:40:27.098Z,4.8
2019-02-15T01:40:35.014Z,4.7
2019-02-15T01:40:42.921Z,4.8
2019-02-15T01:40:50.808Z,3.7
2019-02-15T01:40:58.684Z,3.8
2019-02-15T01:41:06.561Z,3.7
2019-02-15T01:41:14.479Z,3.5
2019-02-15T01:41:24.344Z,3.9
2019-02-15T01:41:32.235Z,3.6
2019-02-15T01:41:40.108Z,4.2
2019-02-15T01:41:47.982Z,5
2019-02-15T01:41:55.856Z,5.2
2019-02-15T01:42:03.788Z,4.9
2019-02-15T01:42:11.685Z,4.7
2019-02-15T01:42:19.565Z,3.9
2019-02-15T01:42:27.425Z,3.6
2019-02-15T01:42:35.286Z,3.8
2019-02-15T01:42:43.174Z,3.9
2019-02-15T01:42:53.054Z,4.6
2019-02-15T01:43:00.925Z,4.2
2019-02-15T01:43:08.799Z,4.2
2019-02-15T01:43:16.695Z,3.7
2019-02-15T01:43:24.586Z,4
2019-02-15T01:43:39.708Z,3.9
2019-02-15T01:43:44.319Z,4.1
2019-02-15T01:43:53.184Z,4.1
2019-02-15T01:44:01.127Z,4.7
2019-02-15T01:44:08.970Z,4.9
2019-02-15T01:44:16.846Z,4.8
2019-02-15T01:44:24.721Z,4.7
2019-02-15T01:44:32.609Z,4.3
2019-02-15T01:44:40.495Z,4.7
2019-02-15T01:44:48.349Z,4.6
2019-02-15T01:44:56.237Z,4.6
2019-02-15T01:45:04.151Z,3.8
2019-02-15T01:45:12.033Z,3.6
2019-02-15T01:45:19.899Z,3.5
2019-02-15T01:45:27.764Z,3.8
2019-02-15T01:45:36.670Z,4.1
2019-02-15T01:45:44.573Z,4.3
2019-02-15T01:45:52.481Z,4.6
2019-02-15T01:46:01.341Z,4.1
2019-02-15T01:46:09.219Z,4
2019-02-15T01:46:17.131Z,4.3
2019-02-15T01:46:25.000Z,4
2019-02-15T01:46:32.933Z,4.4
2019-02-15T01:46:40.851Z,4.4
2019-02-15T01:46:48.737Z,4.2
2019-02-15T01:46:56.609Z,4
2019-02-15T01:47:04.494Z,4
2019-02-15T01:47:12.369Z,4.4
2019-02-15T01:47:20.237Z,4.5
2019-02-15T01:47:28.157Z,4.5
2019-02-15T01:47:36.047Z,4.1
2019-02-15T01:47:44.906Z,3.9
2019-02-15T01:47:52.775Z,3.7
2019-02-15T01:48:01.639Z,4.1
2019-02-15T01:48:09.519Z,4
2019-02-15T01:48:17.391Z,4
2019-02-15T01:48:25.263Z,4.2
2019-02-15T01:48:33.146Z,3.9
2019-02-15T01:48:41.022Z,4
2019-02-15T01:48:48.921Z,4.5
2019-02-15T01:48:56.789Z,3.9
2019-02-15T01:49:04.655Z,4.5
2019-02-15T01:49:12.533Z,4.5
2019-02-15T01:49:20.399Z,3.6
2019-02-15T01:49:28.293Z,3.8
2019-02-15T01:49:37.162Z,3.3
2019-02-15T01:49:46.060Z,3.5
2019-02-15T01:49:53.916Z,4.1
2019-02-15T01:50:01.801Z,4.1
2019-02-15T01:50:09.674Z,4.7
2019-02-15T01:50:17.534Z,4.5
2019-02-15T01:50:25.393Z,4.5
2019-02-15T01:50:33.291Z,4.3
2019-02-15T01:50:41.190Z,4.3
2019-02-15T01:50:49.042Z,4.2
2019-02-15T01:50:56.962Z,4
2019-02-15T01:51:04.848Z,4.3
2019-02-15T01:51:12.723Z,4.5